sensor_id;sensor_type;location;lat;lon;timestamp;P1;durP1;ratioP1;P2;durP2;ratioP2
3307;SDS011;1666;48.898;9.182;2023-09-30T00:01:27;3.47;;;1.98;;
3307;SDS011;1666;48.898;9.182;2023-09-30T00:03:57;4.57;;;2.33;;
3307;SDS011;1666;48.898;9.182;2023-09-30T00:06:32;2.90;;;1.88;;
3307;SDS011;1666;48.898;9.182;2023-09-30T00:09:02;5.60;;;2.50;;
3307;SDS011;1666;48.898;9.182;2023-09-30T00:11:34;5.05;;;2.08;;
3307;SDS011;1666;48.898;9.182;2023-09-30T00:14:04;4.32;;;2.28;;
3307;SDS011;1666;48.898;9.182;2023-09-30T00:16:34;2.70;;;1.65;;
3307;SDS011;1666;48.898;9.182;2023-09-30T00:19:04;3.38;;;2.08;;
3307;SDS011;1666;48.898;9.182;2023-09-30T00:21:38;3.15;;;1.95;;
3307;SDS011;1666;48.898;9.182;2023-09-30T00:24:08;5.22;;;2.53;;
3307;SDS011;1666;48.898;9.182;2023-09-30T00:26:38;5.03;;;2.10;;
3307;SDS011;1666;48.898;9.182;2023-09-30T00:29:08;3.60;;;1.90;;
3307;SDS011;1666;48.898;9.182;2023-09-30T00:31:38;3.35;;;2.03;;
3307;SDS011;1666;48.898;9.182;2023-09-30T00:34:08;6.90;;;2.17;;
3307;SDS011;1666;48.898;9.182;2023-09-30T00:36:41;2.55;;;1.92;;
3307;SDS011;1666;48.898;9.182;2023-09-30T00:39:11;3.95;;;2.00;;
3307;SDS011;1666;48.898;9.182;2023-09-30T00:41:41;5.25;;;2.10;;
3307;SDS011;1666;48.898;9.182;2023-09-30T00:44:10;4.90;;;2.33;;
3307;SDS011;1666;48.898;9.182;2023-09-30T00:46:40;3.40;;;2.15;;
3307;SDS011;1666;48.898;9.182;2023-09-30T00:49:11;4.95;;;2.80;;
3307;SDS011;1666;48.898;9.182;2023-09-30T00:51:47;3.05;;;2.30;;
3307;SDS011;1666;48.898;9.182;2023-09-30T00:54:18;5.00;;;2.80;;
3307;SDS011;1666;48.898;9.182;2023-09-30T00:56:50;5.15;;;2.75;;
3307;SDS011;1666;48.898;9.182;2023-09-30T00:59:22;6.93;;;2.60;;
3307;SDS011;1666;48.898;9.182;2023-09-30T01:01:53;4.13;;;2.40;;
3307;SDS011;1666;48.898;9.182;2023-09-30T01:04:27;5.43;;;2.65;;
3307;SDS011;1666;48.898;9.182;2023-09-30T01:06:59;4.05;;;2.45;;
3307;SDS011;1666;48.898;9.182;2023-09-30T01:09:30;3.70;;;2.70;;
3307;SDS011;1666;48.898;9.182;2023-09-30T01:12:01;5.35;;;2.85;;
3307;SDS011;1666;48.898;9.182;2023-09-30T01:14:32;4.60;;;2.67;;
3307;SDS011;1666;48.898;9.182;2023-09-30T01:17:05;3.60;;;2.38;;
3307;SDS011;1666;48.898;9.182;2023-09-30T01:19:39;5.10;;;2.83;;
3307;SDS011;1666;48.898;9.182;2023-09-30T01:22:12;3.97;;;2.88;;
3307;SDS011;1666;48.898;9.182;2023-09-30T01:24:43;5.80;;;3.23;;
3307;SDS011;1666;48.898;9.182;2023-09-30T01:27:14;6.45;;;3.20;;
3307;SDS011;1666;48.898;9.182;2023-09-30T01:29:45;4.93;;;2.97;;
3307;SDS011;1666;48.898;9.182;2023-09-30T01:32:15;7.25;;;3.17;;
3307;SDS011;1666;48.898;9.182;2023-09-30T01:34:45;4.68;;;3.47;;
3307;SDS011;1666;48.898;9.182;2023-09-30T01:37:17;6.07;;;3.10;;
3307;SDS011;1666;48.898;9.182;2023-09-30T01:39:47;6.82;;;3.50;;
3307;SDS011;1666;48.898;9.182;2023-09-30T01:42:21;6.07;;;3.10;;
3307;SDS011;1666;48.898;9.182;2023-09-30T01:44:51;6.00;;;3.67;;
3307;SDS011;1666;48.898;9.182;2023-09-30T01:47:23;9.57;;;3.63;;
3307;SDS011;1666;48.898;9.182;2023-09-30T01:49:53;6.53;;;3.58;;
3307;SDS011;1666;48.898;9.182;2023-09-30T01:52:25;7.28;;;3.47;;
3307;SDS011;1666;48.898;9.182;2023-09-30T01:54:56;6.05;;;3.78;;
3307;SDS011;1666;48.898;9.182;2023-09-30T01:57:27;7.88;;;4.07;;
3307;SDS011;1666;48.898;9.182;2023-09-30T01:59:57;5.05;;;3.90;;
3307;SDS011;1666;48.898;9.182;2023-09-30T02:02:27;8.00;;;4.47;;
3307;SDS011;1666;48.898;9.182;2023-09-30T02:04:57;7.03;;;4.43;;
3307;SDS011;1666;48.898;9.182;2023-09-30T02:07:29;7.00;;;4.20;;
3307;SDS011;1666;48.898;9.182;2023-09-30T02:09:59;6.57;;;4.03;;
3307;SDS011;1666;48.898;9.182;2023-09-30T02:12:31;6.72;;;4.30;;
3307;SDS011;1666;48.898;9.182;2023-09-30T02:15:02;6.80;;;4.28;;
3307;SDS011;1666;48.898;9.182;2023-09-30T02:17:34;7.75;;;4.68;;
3307;SDS011;1666;48.898;9.182;2023-09-30T02:20:05;7.88;;;4.25;;
3307;SDS011;1666;48.898;9.182;2023-09-30T02:22:43;8.05;;;4.45;;
3307;SDS011;1666;48.898;9.182;2023-09-30T02:25:14;6.53;;;4.40;;
3307;SDS011;1666;48.898;9.182;2023-09-30T02:27:44;7.18;;;4.60;;
3307;SDS011;1666;48.898;9.182;2023-09-30T02:30:14;6.03;;;4.40;;
3307;SDS011;1666;48.898;9.182;2023-09-30T02:32:44;7.88;;;5.00;;
3307;SDS011;1666;48.898;9.182;2023-09-30T02:35:15;6.72;;;4.55;;
3307;SDS011;1666;48.898;9.182;2023-09-30T02:37:49;6.68;;;4.20;;
3307;SDS011;1666;48.898;9.182;2023-09-30T02:40:20;7.45;;;4.32;;
3307;SDS011;1666;48.898;9.182;2023-09-30T02:42:51;8.45;;;4.60;;
3307;SDS011;1666;48.898;9.182;2023-09-30T02:45:21;8.82;;;4.68;;
3307;SDS011;1666;48.898;9.182;2023-09-30T02:47:51;7.07;;;4.38;;
3307;SDS011;1666;48.898;9.182;2023-09-30T02:50:21;9.07;;;4.80;;
3307;SDS011;1666;48.898;9.182;2023-09-30T02:52:56;8.50;;;4.70;;
3307;SDS011;1666;48.898;9.182;2023-09-30T02:55:25;8.27;;;4.50;;
3307;SDS011;1666;48.898;9.182;2023-09-30T02:57:55;6.65;;;4.78;;
3307;SDS011;1666;48.898;9.182;2023-09-30T03:00:27;6.63;;;3.90;;
3307;SDS011;1666;48.898;9.182;2023-09-30T03:03:00;6.20;;;4.97;;
3307;SDS011;1666;48.898;9.182;2023-09-30T03:05:31;8.98;;;5.15;;
3307;SDS011;1666;48.898;9.182;2023-09-30T03:08:04;9.82;;;4.63;;
3307;SDS011;1666;48.898;9.182;2023-09-30T03:10:34;6.88;;;4.85;;
3307;SDS011;1666;48.898;9.182;2023-09-30T03:13:07;11.23;;;5.60;;
3307;SDS011;1666;48.898;9.182;2023-09-30T03:15:37;7.43;;;4.53;;
3307;SDS011;1666;48.898;9.182;2023-09-30T03:18:07;6.38;;;4.45;;
3307;SDS011;1666;48.898;9.182;2023-09-30T03:20:38;7.68;;;5.22;;
3307;SDS011;1666;48.898;9.182;2023-09-30T03:23:12;8.35;;;4.53;;
3307;SDS011;1666;48.898;9.182;2023-09-30T03:25:42;7.95;;;4.90;;
3307;SDS011;1666;48.898;9.182;2023-09-30T03:28:12;8.40;;;4.97;;
3307;SDS011;1666;48.898;9.182;2023-09-30T03:30:43;8.57;;;5.22;;
3307;SDS011;1666;48.898;9.182;2023-09-30T03:33:13;8.93;;;4.72;;
3307;SDS011;1666;48.898;9.182;2023-09-30T03:35:43;10.63;;;4.93;;
3307;SDS011;1666;48.898;9.182;2023-09-30T03:38:16;7.93;;;4.80;;
3307;SDS011;1666;48.898;9.182;2023-09-30T03:40:46;9.23;;;5.32;;
3307;SDS011;1666;48.898;9.182;2023-09-30T03:43:17;10.73;;;5.80;;
3307;SDS011;1666;48.898;9.182;2023-09-30T03:45:47;6.95;;;5.15;;
3307;SDS011;1666;48.898;9.182;2023-09-30T03:48:17;7.97;;;5.07;;
3307;SDS011;1666;48.898;9.182;2023-09-30T03:50:47;9.07;;;5.03;;
3307;SDS011;1666;48.898;9.182;2023-09-30T03:53:21;7.55;;;4.70;;
3307;SDS011;1666;48.898;9.182;2023-09-30T03:55:53;12.02;;;5.28;;
3307;SDS011;1666;48.898;9.182;2023-09-30T03:58:23;7.10;;;4.68;;
3307;SDS011;1666;48.898;9.182;2023-09-30T04:00:53;6.43;;;4.28;;
3307;SDS011;1666;48.898;9.182;2023-09-30T04:03:23;6.63;;;4.68;;
3307;SDS011;1666;48.898;9.182;2023-09-30T04:05:54;9.15;;;4.38;;
3307;SDS011;1666;48.898;9.182;2023-09-30T04:08:26;10.07;;;4.97;;
3307;SDS011;1666;48.898;9.182;2023-09-30T04:10:56;9.95;;;4.90;;
3307;SDS011;1666;48.898;9.182;2023-09-30T04:13:26;6.82;;;5.07;;
3307;SDS011;1666;48.898;9.182;2023-09-30T04:15:57;8.10;;;5.25;;
3307;SDS011;1666;48.898;9.182;2023-09-30T04:18:27;7.65;;;5.53;;
3307;SDS011;1666;48.898;9.182;2023-09-30T04:20:58;7.03;;;4.60;;
3307;SDS011;1666;48.898;9.182;2023-09-30T04:23:31;9.48;;;4.47;;
3307;SDS011;1666;48.898;9.182;2023-09-30T04:28:32;7.63;;;4.55;;
3307;SDS011;1666;48.898;9.182;2023-09-30T04:31:02;8.15;;;4.55;;
3307;SDS011;1666;48.898;9.182;2023-09-30T04:33:34;8.27;;;4.50;;
3307;SDS011;1666;48.898;9.182;2023-09-30T04:36:04;9.32;;;4.72;;
3307;SDS011;1666;48.898;9.182;2023-09-30T04:38:38;7.82;;;4.68;;
3307;SDS011;1666;48.898;9.182;2023-09-30T04:41:08;5.60;;;4.35;;
3307;SDS011;1666;48.898;9.182;2023-09-30T04:43:38;9.65;;;4.25;;
3307;SDS011;1666;48.898;9.182;2023-09-30T04:46:10;6.20;;;4.35;;
3307;SDS011;1666;48.898;9.182;2023-09-30T04:48:42;5.90;;;3.67;;
3307;SDS011;1666;48.898;9.182;2023-09-30T04:51:15;7.63;;;4.57;;
3307;SDS011;1666;48.898;9.182;2023-09-30T04:53:48;8.55;;;4.47;;
3307;SDS011;1666;48.898;9.182;2023-09-30T04:56:18;6.07;;;4.45;;
3307;SDS011;1666;48.898;9.182;2023-09-30T04:58:48;7.22;;;4.60;;
3307;SDS011;1666;48.898;9.182;2023-09-30T05:01:18;7.80;;;4.80;;
3307;SDS011;1666;48.898;9.182;2023-09-30T05:03:48;5.85;;;4.07;;
3307;SDS011;1666;48.898;9.182;2023-09-30T05:06:18;7.68;;;4.32;;
3307;SDS011;1666;48.898;9.182;2023-09-30T05:08:50;7.45;;;5.13;;
3307;SDS011;1666;48.898;9.182;2023-09-30T05:11:21;6.05;;;4.60;;
3307;SDS011;1666;48.898;9.182;2023-09-30T05:13:51;10.95;;;6.15;;
3307;SDS011;1666;48.898;9.182;2023-09-30T05:16:22;7.25;;;4.70;;
3307;SDS011;1666;48.898;9.182;2023-09-30T05:18:53;7.65;;;5.18;;
3307;SDS011;1666;48.898;9.182;2023-09-30T05:21:23;7.78;;;5.43;;
3307;SDS011;1666;48.898;9.182;2023-09-30T05:23:56;11.18;;;5.57;;
3307;SDS011;1666;48.898;9.182;2023-09-30T05:26:25;6.10;;;4.72;;
3307;SDS011;1666;48.898;9.182;2023-09-30T05:28:55;9.63;;;5.13;;
3307;SDS011;1666;48.898;9.182;2023-09-30T05:31:26;8.20;;;5.07;;
3307;SDS011;1666;48.898;9.182;2023-09-30T05:33:56;10.35;;;5.45;;
3307;SDS011;1666;48.898;9.182;2023-09-30T05:36:27;9.05;;;5.45;;
3307;SDS011;1666;48.898;9.182;2023-09-30T05:39:00;8.95;;;4.65;;
3307;SDS011;1666;48.898;9.182;2023-09-30T05:41:31;9.07;;;6.00;;
3307;SDS011;1666;48.898;9.182;2023-09-30T05:44:01;9.32;;;5.28;;
3307;SDS011;1666;48.898;9.182;2023-09-30T05:46:31;9.07;;;4.75;;
3307;SDS011;1666;48.898;9.182;2023-09-30T05:49:01;6.13;;;4.68;;
3307;SDS011;1666;48.898;9.182;2023-09-30T05:51:36;9.32;;;5.63;;
3307;SDS011;1666;48.898;9.182;2023-09-30T05:54:09;10.95;;;5.05;;
3307;SDS011;1666;48.898;9.182;2023-09-30T05:56:40;8.43;;;4.97;;
3307;SDS011;1666;48.898;9.182;2023-09-30T05:59:11;7.03;;;4.10;;
3307;SDS011;1666;48.898;9.182;2023-09-30T06:01:41;9.00;;;4.60;;
3307;SDS011;1666;48.898;9.182;2023-09-30T06:04:12;7.38;;;5.22;;
3307;SDS011;1666;48.898;9.182;2023-09-30T06:06:43;9.25;;;5.70;;
3307;SDS011;1666;48.898;9.182;2023-09-30T06:09:15;11.95;;;5.10;;
3307;SDS011;1666;48.898;9.182;2023-09-30T06:11:45;9.60;;;5.60;;
3307;SDS011;1666;48.898;9.182;2023-09-30T06:14:15;11.63;;;5.20;;
3307;SDS011;1666;48.898;9.182;2023-09-30T06:16:45;11.50;;;5.20;;
3307;SDS011;1666;48.898;9.182;2023-09-30T06:19:16;8.90;;;5.18;;
3307;SDS011;1666;48.898;9.182;2023-09-30T06:21:47;11.98;;;6.32;;
3307;SDS011;1666;48.898;9.182;2023-09-30T06:24:20;9.18;;;5.07;;
3307;SDS011;1666;48.898;9.182;2023-09-30T06:26:50;7.65;;;5.47;;
3307;SDS011;1666;48.898;9.182;2023-09-30T06:29:20;11.05;;;5.50;;
3307;SDS011;1666;48.898;9.182;2023-09-30T06:31:50;9.25;;;5.57;;
3307;SDS011;1666;48.898;9.182;2023-09-30T06:34:20;7.63;;;5.50;;
3307;SDS011;1666;48.898;9.182;2023-09-30T06:36:50;10.43;;;5.30;;
3307;SDS011;1666;48.898;9.182;2023-09-30T06:39:23;9.55;;;5.57;;
3307;SDS011;1666;48.898;9.182;2023-09-30T06:41:53;7.97;;;5.32;;
3307;SDS011;1666;48.898;9.182;2023-09-30T06:44:23;11.32;;;5.50;;
3307;SDS011;1666;48.898;9.182;2023-09-30T06:46:54;8.88;;;5.60;;
3307;SDS011;1666;48.898;9.182;2023-09-30T06:49:24;9.65;;;5.07;;
3307;SDS011;1666;48.898;9.182;2023-09-30T06:51:54;8.95;;;5.47;;
3307;SDS011;1666;48.898;9.182;2023-09-30T06:54:27;7.57;;;4.88;;
3307;SDS011;1666;48.898;9.182;2023-09-30T06:56:57;8.23;;;5.32;;
3307;SDS011;1666;48.898;9.182;2023-09-30T06:59:27;10.02;;;5.97;;
3307;SDS011;1666;48.898;9.182;2023-09-30T07:01:57;7.93;;;5.10;;
3307;SDS011;1666;48.898;9.182;2023-09-30T07:04:27;8.18;;;4.70;;
3307;SDS011;1666;48.898;9.182;2023-09-30T07:06:59;11.32;;;5.35;;
3307;SDS011;1666;48.898;9.182;2023-09-30T07:09:31;9.77;;;5.80;;
3307;SDS011;1666;48.898;9.182;2023-09-30T07:12:01;14.23;;;4.97;;
3307;SDS011;1666;48.898;9.182;2023-09-30T07:14:31;8.57;;;5.07;;
3307;SDS011;1666;48.898;9.182;2023-09-30T07:17:01;8.02;;;4.50;;
3307;SDS011;1666;48.898;9.182;2023-09-30T07:19:31;9.55;;;4.95;;
3307;SDS011;1666;48.898;9.182;2023-09-30T07:22:01;10.45;;;5.50;;
3307;SDS011;1666;48.898;9.182;2023-09-30T07:24:34;9.63;;;5.35;;
3307;SDS011;1666;48.898;9.182;2023-09-30T07:27:06;11.45;;;5.57;;
3307;SDS011;1666;48.898;9.182;2023-09-30T07:29:53;8.63;;;5.43;;
3307;SDS011;1666;48.898;9.182;2023-09-30T07:32:23;11.95;;;5.57;;
3307;SDS011;1666;48.898;9.182;2023-09-30T07:34:54;9.07;;;5.60;;
3307;SDS011;1666;48.898;9.182;2023-09-30T07:37:24;10.27;;;5.55;;
3307;SDS011;1666;48.898;9.182;2023-09-30T07:39:57;10.80;;;5.90;;
3307;SDS011;1666;48.898;9.182;2023-09-30T07:42:27;11.93;;;6.03;;
3307;SDS011;1666;48.898;9.182;2023-09-30T07:44:57;10.52;;;5.93;;
3307;SDS011;1666;48.898;9.182;2023-09-30T07:47:27;8.05;;;5.18;;
3307;SDS011;1666;48.898;9.182;2023-09-30T07:49:57;8.60;;;5.63;;
3307;SDS011;1666;48.898;9.182;2023-09-30T07:52:29;10.65;;;5.40;;
3307;SDS011;1666;48.898;9.182;2023-09-30T07:55:01;8.32;;;4.97;;
3307;SDS011;1666;48.898;9.182;2023-09-30T07:57:31;10.27;;;4.95;;
3307;SDS011;1666;48.898;9.182;2023-09-30T08:00:02;9.85;;;5.40;;
3307;SDS011;1666;48.898;9.182;2023-09-30T08:02:36;9.30;;;4.50;;
3307;SDS011;1666;48.898;9.182;2023-09-30T08:05:07;11.18;;;5.28;;
3307;SDS011;1666;48.898;9.182;2023-09-30T08:07:38;8.45;;;5.53;;
3307;SDS011;1666;48.898;9.182;2023-09-30T08:10:11;9.90;;;5.85;;
3307;SDS011;1666;48.898;9.182;2023-09-30T08:12:43;10.95;;;5.45;;
3307;SDS011;1666;48.898;9.182;2023-09-30T08:15:15;7.70;;;4.90;;
3307;SDS011;1666;48.898;9.182;2023-09-30T08:17:45;8.60;;;4.50;;
3307;SDS011;1666;48.898;9.182;2023-09-30T08:20:15;6.85;;;5.13;;
3307;SDS011;1666;48.898;9.182;2023-09-30T08:22:45;7.55;;;4.95;;
3307;SDS011;1666;48.898;9.182;2023-09-30T08:25:18;8.60;;;4.43;;
3307;SDS011;1666;48.898;9.182;2023-09-30T08:27:51;7.88;;;5.65;;
3307;SDS011;1666;48.898;9.182;2023-09-30T08:30:21;10.30;;;5.15;;
3307;SDS011;1666;48.898;9.182;2023-09-30T08:32:51;8.55;;;5.20;;
3307;SDS011;1666;48.898;9.182;2023-09-30T08:35:21;7.25;;;5.00;;
3307;SDS011;1666;48.898;9.182;2023-09-30T08:37:51;12.15;;;5.05;;
3307;SDS011;1666;48.898;9.182;2023-09-30T08:40:23;10.02;;;4.68;;
3307;SDS011;1666;48.898;9.182;2023-09-30T08:42:53;10.45;;;5.50;;
3307;SDS011;1666;48.898;9.182;2023-09-30T08:45:23;10.30;;;4.85;;
3307;SDS011;1666;48.898;9.182;2023-09-30T08:47:57;9.50;;;5.45;;
3307;SDS011;1666;48.898;9.182;2023-09-30T08:53:03;7.90;;;5.05;;
3307;SDS011;1666;48.898;9.182;2023-09-30T08:55:35;10.13;;;4.95;;
3307;SDS011;1666;48.898;9.182;2023-09-30T08:58:07;10.73;;;4.95;;
3307;SDS011;1666;48.898;9.182;2023-09-30T09:00:37;10.18;;;4.65;;
3307;SDS011;1666;48.898;9.182;2023-09-30T09:03:08;13.18;;;6.13;;
3307;SDS011;1666;48.898;9.182;2023-09-30T09:05:38;10.98;;;5.25;;
3307;SDS011;1666;48.898;9.182;2023-09-30T09:08:08;10.52;;;5.13;;
3307;SDS011;1666;48.898;9.182;2023-09-30T09:10:47;8.10;;;4.50;;
3307;SDS011;1666;48.898;9.182;2023-09-30T09:13:23;9.38;;;5.78;;
3307;SDS011;1666;48.898;9.182;2023-09-30T09:16:06;11.85;;;6.03;;
3307;SDS011;1666;48.898;9.182;2023-09-30T09:18:37;7.18;;;4.65;;
3307;SDS011;1666;48.898;9.182;2023-09-30T09:21:08;10.45;;;4.80;;
3307;SDS011;1666;48.898;9.182;2023-09-30T09:23:43;7.75;;;4.55;;
3307;SDS011;1666;48.898;9.182;2023-09-30T09:26:25;8.50;;;4.32;;
3307;SDS011;1666;48.898;9.182;2023-09-30T09:28:57;9.05;;;4.63;;
3307;SDS011;1666;48.898;9.182;2023-09-30T09:31:26;9.30;;;5.45;;
3307;SDS011;1666;48.898;9.182;2023-09-30T09:33:57;10.05;;;4.90;;
3307;SDS011;1666;48.898;9.182;2023-09-30T09:36:37;6.40;;;4.70;;
3307;SDS011;1666;48.898;9.182;2023-09-30T09:39:08;9.02;;;4.68;;
3307;SDS011;1666;48.898;9.182;2023-09-30T09:41:51;10.57;;;4.88;;
3307;SDS011;1666;48.898;9.182;2023-09-30T09:44:24;13.40;;;4.90;;
3307;SDS011;1666;48.898;9.182;2023-09-30T09:46:54;9.73;;;4.53;;
3307;SDS011;1666;48.898;9.182;2023-09-30T09:49:27;8.98;;;4.72;;
3307;SDS011;1666;48.898;9.182;2023-09-30T09:51:57;11.85;;;5.22;;
3307;SDS011;1666;48.898;9.182;2023-09-30T09:54:30;7.55;;;4.40;;
3307;SDS011;1666;48.898;9.182;2023-09-30T09:57:04;9.75;;;4.93;;
3307;SDS011;1666;48.898;9.182;2023-09-30T09:59:38;11.00;;;4.88;;
3307;SDS011;1666;48.898;9.182;2023-09-30T10:02:10;8.38;;;4.45;;
3307;SDS011;1666;48.898;9.182;2023-09-30T10:04:41;10.35;;;4.57;;
3307;SDS011;1666;48.898;9.182;2023-09-30T10:07:14;5.75;;;3.75;;
3307;SDS011;1666;48.898;9.182;2023-09-30T10:09:49;6.15;;;3.60;;
3307;SDS011;1666;48.898;9.182;2023-09-30T10:12:24;8.88;;;4.07;;
3307;SDS011;1666;48.898;9.182;2023-09-30T10:14:55;7.43;;;3.97;;
3307;SDS011;1666;48.898;9.182;2023-09-30T10:20:26;7.43;;;4.15;;
3307;SDS011;1666;48.898;9.182;2023-09-30T10:25:51;11.57;;;4.10;;
3307;SDS011;1666;48.898;9.182;2023-09-30T10:28:40;7.65;;;3.67;;
3307;SDS011;1666;48.898;9.182;2023-09-30T10:31:13;8.68;;;4.03;;
3307;SDS011;1666;48.898;9.182;2023-09-30T10:36:47;8.23;;;4.53;;
3307;SDS011;1666;48.898;9.182;2023-09-30T10:51:11;9.68;;;3.85;;
3307;SDS011;1666;48.898;9.182;2023-09-30T10:53:46;6.95;;;4.00;;
3307;SDS011;1666;48.898;9.182;2023-09-30T10:56:18;6.97;;;3.90;;
3307;SDS011;1666;48.898;9.182;2023-09-30T10:58:49;6.38;;;3.85;;
3307;SDS011;1666;48.898;9.182;2023-09-30T11:01:23;7.07;;;4.20;;
3307;SDS011;1666;48.898;9.182;2023-09-30T11:03:57;7.75;;;3.50;;
3307;SDS011;1666;48.898;9.182;2023-09-30T11:06:30;11.68;;;4.50;;
3307;SDS011;1666;48.898;9.182;2023-09-30T11:09:01;7.53;;;4.28;;
3307;SDS011;1666;48.898;9.182;2023-09-30T11:14:16;7.20;;;4.22;;
3307;SDS011;1666;48.898;9.182;2023-09-30T11:16:56;8.82;;;3.53;;
3307;SDS011;1666;48.898;9.182;2023-09-30T11:19:34;6.00;;;3.40;;
3307;SDS011;1666;48.898;9.182;2023-09-30T11:22:05;7.57;;;3.15;;
3307;SDS011;1666;48.898;9.182;2023-09-30T11:24:36;7.95;;;3.90;;
3307;SDS011;1666;48.898;9.182;2023-09-30T11:27:06;7.18;;;3.25;;
3307;SDS011;1666;48.898;9.182;2023-09-30T11:29:36;6.75;;;3.45;;
3307;SDS011;1666;48.898;9.182;2023-09-30T11:32:09;7.95;;;4.18;;
3307;SDS011;1666;48.898;9.182;2023-09-30T11:34:53;8.50;;;4.70;;
3307;SDS011;1666;48.898;9.182;2023-09-30T11:37:23;8.80;;;4.43;;
3307;SDS011;1666;48.898;9.182;2023-09-30T11:40:13;6.78;;;3.95;;
3307;SDS011;1666;48.898;9.182;2023-09-30T11:45:37;7.07;;;3.33;;
3307;SDS011;1666;48.898;9.182;2023-09-30T11:48:18;5.57;;;3.47;;
3307;SDS011;1666;48.898;9.182;2023-09-30T11:50:49;8.20;;;3.97;;
3307;SDS011;1666;48.898;9.182;2023-09-30T11:53:19;7.97;;;3.95;;
3307;SDS011;1666;48.898;9.182;2023-09-30T11:55:49;7.60;;;3.90;;
3307;SDS011;1666;48.898;9.182;2023-09-30T11:58:21;7.95;;;3.88;;
3307;SDS011;1666;48.898;9.182;2023-09-30T12:00:53;5.93;;;3.45;;
3307;SDS011;1666;48.898;9.182;2023-09-30T12:03:26;6.63;;;3.65;;
3307;SDS011;1666;48.898;9.182;2023-09-30T12:05:57;10.52;;;4.28;;
3307;SDS011;1666;48.898;9.182;2023-09-30T12:08:27;7.70;;;3.95;;
3307;SDS011;1666;48.898;9.182;2023-09-30T12:10:58;9.80;;;4.15;;
3307;SDS011;1666;48.898;9.182;2023-09-30T12:13:28;6.93;;;3.65;;
3307;SDS011;1666;48.898;9.182;2023-09-30T12:15:58;9.75;;;3.85;;
3307;SDS011;1666;48.898;9.182;2023-09-30T12:18:33;8.10;;;3.95;;
3307;SDS011;1666;48.898;9.182;2023-09-30T12:21:03;7.82;;;4.07;;
3307;SDS011;1666;48.898;9.182;2023-09-30T12:23:34;7.85;;;4.20;;
3307;SDS011;1666;48.898;9.182;2023-09-30T12:26:04;7.68;;;3.92;;
3307;SDS011;1666;48.898;9.182;2023-09-30T12:28:41;6.35;;;3.63;;
3307;SDS011;1666;48.898;9.182;2023-09-30T12:31:12;8.75;;;4.30;;
3307;SDS011;1666;48.898;9.182;2023-09-30T12:33:45;8.10;;;4.30;;
3307;SDS011;1666;48.898;9.182;2023-09-30T12:36:17;7.80;;;4.28;;
3307;SDS011;1666;48.898;9.182;2023-09-30T12:38:48;7.28;;;4.05;;
3307;SDS011;1666;48.898;9.182;2023-09-30T12:41:18;9.23;;;4.20;;
3307;SDS011;1666;48.898;9.182;2023-09-30T12:43:48;7.25;;;4.05;;
3307;SDS011;1666;48.898;9.182;2023-09-30T12:46:18;7.80;;;3.90;;
3307;SDS011;1666;48.898;9.182;2023-09-30T12:48:51;8.63;;;4.18;;
3307;SDS011;1666;48.898;9.182;2023-09-30T12:51:22;9.52;;;4.30;;
3307;SDS011;1666;48.898;9.182;2023-09-30T12:53:52;6.88;;;4.22;;
3307;SDS011;1666;48.898;9.182;2023-09-30T12:56:21;9.15;;;4.45;;
3307;SDS011;1666;48.898;9.182;2023-09-30T12:58:51;7.57;;;3.85;;
3307;SDS011;1666;48.898;9.182;2023-09-30T13:01:22;9.80;;;4.32;;
3307;SDS011;1666;48.898;9.182;2023-09-30T13:03:54;8.27;;;3.97;;
3307;SDS011;1666;48.898;9.182;2023-09-30T13:06:25;8.13;;;4.40;;
3307;SDS011;1666;48.898;9.182;2023-09-30T13:08:55;7.50;;;3.90;;
3307;SDS011;1666;48.898;9.182;2023-09-30T13:11:26;8.68;;;4.07;;
3307;SDS011;1666;48.898;9.182;2023-09-30T13:13:56;7.00;;;4.25;;
3307;SDS011;1666;48.898;9.182;2023-09-30T13:16:26;8.00;;;4.30;;
3307;SDS011;1666;48.898;9.182;2023-09-30T13:18:58;8.73;;;4.68;;
3307;SDS011;1666;48.898;9.182;2023-09-30T13:21:28;8.32;;;4.47;;
3307;SDS011;1666;48.898;9.182;2023-09-30T13:23:58;7.00;;;3.90;;
3307;SDS011;1666;48.898;9.182;2023-09-30T13:26:28;9.27;;;4.35;;
3307;SDS011;1666;48.898;9.182;2023-09-30T13:28:59;9.02;;;4.00;;
3307;SDS011;1666;48.898;9.182;2023-09-30T13:31:31;7.85;;;4.30;;
3307;SDS011;1666;48.898;9.182;2023-09-30T13:34:06;8.93;;;4.22;;
3307;SDS011;1666;48.898;9.182;2023-09-30T13:36:36;8.20;;;3.83;;
3307;SDS011;1666;48.898;9.182;2023-09-30T13:39:06;8.25;;;4.07;;
3307;SDS011;1666;48.898;9.182;2023-09-30T13:41:39;13.55;;;4.00;;
3307;SDS011;1666;48.898;9.182;2023-09-30T13:44:09;7.38;;;3.97;;
3307;SDS011;1666;48.898;9.182;2023-09-30T13:46:40;12.13;;;4.68;;
3307;SDS011;1666;48.898;9.182;2023-09-30T13:49:12;7.60;;;4.00;;
3307;SDS011;1666;48.898;9.182;2023-09-30T13:51:42;6.47;;;3.80;;
3307;SDS011;1666;48.898;9.182;2023-09-30T13:54:12;9.80;;;3.97;;
3307;SDS011;1666;48.898;9.182;2023-09-30T13:56:42;8.43;;;3.78;;
3307;SDS011;1666;48.898;9.182;2023-09-30T13:59:12;7.50;;;3.90;;
3307;SDS011;1666;48.898;9.182;2023-09-30T14:01:42;10.35;;;4.40;;
3307;SDS011;1666;48.898;9.182;2023-09-30T14:04:14;10.02;;;4.22;;
3307;SDS011;1666;48.898;9.182;2023-09-30T14:06:44;8.02;;;4.03;;
3307;SDS011;1666;48.898;9.182;2023-09-30T14:09:14;10.73;;;3.70;;
3307;SDS011;1666;48.898;9.182;2023-09-30T14:12:00;6.35;;;3.75;;
3307;SDS011;1666;48.898;9.182;2023-09-30T14:14:31;8.25;;;4.25;;
3307;SDS011;1666;48.898;9.182;2023-09-30T14:17:02;10.25;;;5.00;;
3307;SDS011;1666;48.898;9.182;2023-09-30T14:19:39;8.60;;;4.70;;
3307;SDS011;1666;48.898;9.182;2023-09-30T14:22:09;8.68;;;4.30;;
3307;SDS011;1666;48.898;9.182;2023-09-30T14:24:39;7.60;;;4.15;;
3307;SDS011;1666;48.898;9.182;2023-09-30T14:27:09;7.32;;;3.67;;
3307;SDS011;1666;48.898;9.182;2023-09-30T14:29:40;8.40;;;4.57;;
3307;SDS011;1666;48.898;9.182;2023-09-30T14:32:12;8.40;;;4.30;;
3307;SDS011;1666;48.898;9.182;2023-09-30T14:34:44;8.75;;;4.45;;
3307;SDS011;1666;48.898;9.182;2023-09-30T14:37:14;10.25;;;4.53;;
3307;SDS011;1666;48.898;9.182;2023-09-30T14:39:44;10.95;;;4.47;;
3307;SDS011;1666;48.898;9.182;2023-09-30T14:42:14;8.63;;;4.88;;
3307;SDS011;1666;48.898;9.182;2023-09-30T14:44:44;10.30;;;5.63;;
3307;SDS011;1666;48.898;9.182;2023-09-30T14:47:14;9.23;;;4.25;;
3307;SDS011;1666;48.898;9.182;2023-09-30T14:49:47;7.57;;;3.97;;
3307;SDS011;1666;48.898;9.182;2023-09-30T14:52:17;7.35;;;3.83;;
3307;SDS011;1666;48.898;9.182;2023-09-30T14:54:47;8.52;;;4.75;;
3307;SDS011;1666;48.898;9.182;2023-09-30T14:57:17;7.30;;;4.38;;
3307;SDS011;1666;48.898;9.182;2023-09-30T14:59:47;7.20;;;3.92;;
3307;SDS011;1666;48.898;9.182;2023-09-30T15:02:17;6.95;;;4.00;;
3307;SDS011;1666;48.898;9.182;2023-09-30T15:04:50;8.40;;;4.05;;
3307;SDS011;1666;48.898;9.182;2023-09-30T15:07:21;10.18;;;4.63;;
3307;SDS011;1666;48.898;9.182;2023-09-30T15:09:52;8.63;;;4.38;;
3307;SDS011;1666;48.898;9.182;2023-09-30T15:12:22;8.45;;;4.28;;
3307;SDS011;1666;48.898;9.182;2023-09-30T15:14:52;9.93;;;5.40;;
3307;SDS011;1666;48.898;9.182;2023-09-30T15:17:22;10.27;;;4.47;;
3307;SDS011;1666;48.898;9.182;2023-09-30T15:19:55;12.55;;;4.40;;
3307;SDS011;1666;48.898;9.182;2023-09-30T15:22:25;9.70;;;4.90;;
3307;SDS011;1666;48.898;9.182;2023-09-30T15:24:55;12.32;;;5.40;;
3307;SDS011;1666;48.898;9.182;2023-09-30T15:27:25;9.93;;;4.57;;
3307;SDS011;1666;48.898;9.182;2023-09-30T15:29:55;8.07;;;4.50;;
3307;SDS011;1666;48.898;9.182;2023-09-30T15:32:25;9.35;;;4.35;;
3307;SDS011;1666;48.898;9.182;2023-09-30T15:34:57;8.75;;;4.32;;
3307;SDS011;1666;48.898;9.182;2023-09-30T15:37:28;10.20;;;4.72;;
3307;SDS011;1666;48.898;9.182;2023-09-30T15:39:59;9.80;;;4.80;;
3307;SDS011;1666;48.898;9.182;2023-09-30T15:42:29;9.20;;;4.90;;
3307;SDS011;1666;48.898;9.182;2023-09-30T15:44:59;8.60;;;4.50;;
3307;SDS011;1666;48.898;9.182;2023-09-30T15:47:30;9.40;;;4.20;;
3307;SDS011;1666;48.898;9.182;2023-09-30T15:50:02;8.57;;;4.43;;
3307;SDS011;1666;48.898;9.182;2023-09-30T15:52:32;14.60;;;5.13;;
3307;SDS011;1666;48.898;9.182;2023-09-30T15:55:03;10.63;;;5.15;;
3307;SDS011;1666;48.898;9.182;2023-09-30T15:57:33;9.85;;;5.72;;
3307;SDS011;1666;48.898;9.182;2023-09-30T16:00:05;12.10;;;6.43;;
3307;SDS011;1666;48.898;9.182;2023-09-30T16:02:36;10.15;;;5.38;;
3307;SDS011;1666;48.898;9.182;2023-09-30T16:05:09;9.90;;;5.53;;
3307;SDS011;1666;48.898;9.182;2023-09-30T16:07:39;8.93;;;4.85;;
3307;SDS011;1666;48.898;9.182;2023-09-30T16:10:10;8.48;;;4.93;;